Time;durP1;ratioP1;P1;durP2;ratioP2;P2;SDS_P1;SDS_P2;PMS_P1;PMS_P2;Temp;Humidity;BMP_temperature;BMP_pressure;BME280_temperature;BME280_humidity;BME280_pressure;Samples;Min_cycle;Max_cycle;Signal;HPM_P1;HPM_P2
2021/03/21 00:03:55;;;;;;;45.48;17.65;;;;;;;-4.58;99.88;99588.08;4304883;81;43779;-89
2021/03/21 00:10:00;;;;;;;50.17;17.10;;;;;;;-4.66;100.00;99582.13;4299292;81;28639;-88
2021/03/21 00:16:04;;;;;;;46.45;16.90;;;;;;;-4.73;100.00;99570.43;4296831;81;43774;-85
2021/03/21 00:22:07;;;;;;;41.90;16.45;;;;;;;-4.72;100.00;99564.22;4315223;80;28662;-87
2021/03/21 00:28:14;;;;;;;40.45;14.40;;;;;;;-4.67;99.56;99557.30;4335111;80;44439;-86
2021/03/21 00:34:16;;;;;;;40.80;14.93;;;;;;;-4.74;100.00;99555.64;4376147;81;44475;-88
2021/03/21 00:40:20;;;;;;;48.95;15.18;;;;;;;-4.81;100.00;99547.88;4378729;81;43767;-87
2021/03/21 00:46:24;;;;;;;41.75;15.55;;;;;;;-4.73;100.00;99531.56;4374571;81;44451;-87
2021/03/21 00:52:26;;;;;;;40.17;15.75;;;;;;;-4.79;100.00;99524.52;4366468;81;44459;-88
2021/03/21 00:58:28;;;;;;;46.80;16.23;;;;;;;-4.79;100.00;99527.60;4371342;81;44078;-88
2021/03/21 01:04:30;;;;;;;45.08;16.37;;;;;;;-4.63;97.77;99512.34;4373050;81;43745;-88
2021/03/21 01:10:35;;;;;;;45.05;16.05;;;;;;;-4.68;99.48;99500.53;4373692;81;43319;-87
2021/03/21 01:16:42;;;;;;;42.00;16.07;;;;;;;-4.85;100.00;99485.63;4373962;81;28594;-88
2021/03/21 01:22:44;;;;;;;44.33;16.32;;;;;;;-4.70;98.83;99481.46;4369860;81;43670;-86
2021/03/21 01:28:47;;;;;;;44.35;16.42;;;;;;;-4.82;100.00;99468.36;4341254;82;43668;-86
2021/03/21 01:34:49;;;;;;;48.15;16.73;;;;;;;-4.84;100.00;99468.13;4313186;82;43754;-87
2021/03/21 01:41:00;;;;;;;48.15;17.20;;;;;;;-4.93;100.00;99452.14;4314517;82;43790;-87
2021/03/21 01:47:19;;;;;;;45.10;17.00;;;;;;;-4.94;100.00;99450.97;4287282;81;43840;-87
2021/03/21 01:53:35;;;;;;;44.95;16.85;;;;;;;-5.02;100.00;99447.62;4586562;76;68586;-87
2021/03/21 01:59:37;;;;;;;48.05;17.05;;;;;;;-5.08;100.00;99432.39;4372448;80;43804;-86
2021/03/21 02:05:41;;;;;;;46.85;16.77;;;;;;;-5.10;100.00;99426.41;4362649;80;43817;-85
2021/03/21 02:12:10;;;;;;;43.15;15.90;;;;;;;-5.11;100.00;99423.42;4363673;81;44459;-85
2021/03/21 02:18:29;;;;;;;45.52;15.68;;;;;;;-5.02;100.00;99406.97;4612107;76;85497;-85
2021/03/21 02:25:09;;;;;;;42.23;15.65;;;;;;;-4.96;100.00;99392.07;4483798;78;44448;-85
2021/03/21 02:31:35;;;;;;;39.45;14.65;;;;;;;-4.96;100.00;99378.11;4493877;78;44441;-85
2021/03/21 02:37:43;;;;;;;37.90;14.07;;;;;;;-4.96;100.00;99371.55;4511503;78;44748;-85
2021/03/21 02:43:56;;;;;;;37.73;14.75;;;;;;;-5.04;100.00;99359.91;4513573;78;44494;-85
2021/03/21 02:50:03;;;;;;;37.17;13.10;;;;;;;-4.96;98.59;99348.80;4505440;78;44534;-85
2021/03/21 02:56:08;;;;;;;38.90;13.93;;;;;;;-5.02;98.92;99337.97;4486640;78;44476;-87
2021/03/21 03:02:24;;;;;;;34.88;13.58;;;;;;;-5.01;97.57;99319.97;4505079;78;28948;-86
2021/03/21 03:08:44;;;;;;;38.80;13.45;;;;;;;-5.07;97.35;99313.43;4496608;78;44488;-86
2021/03/21 03:14:47;;;;;;;31.37;12.35;;;;;;;-5.01;95.00;99309.48;4484928;78;43446;-85
2021/03/21 03:21:07;;;;;;;28.27;10.90;;;;;;;-4.97;93.18;99299.08;4497852;78;43419;-85
2021/03/21 03:27:14;;;;;;;33.02;12.35;;;;;;;-4.99;92.11;99286.58;4487826;78;44254;-84
2021/03/21 03:33:19;;;;;;;31.12;11.22;;;;;;;-5.07;90.30;99276.22;4489284;78;43395;-83
2021/03/21 03:39:23;;;;;;;;;;;;;;;-5.11;89.81;99254.30;4503373;78;28569;-85
2021/03/21 03:45:43;;;;;;;28.75;11.08;;;;;;;-5.09;88.85;99241.44;4506603;78;20324;-85
2021/03/21 03:52:20;;;;;;;28.35;10.43;;;;;;;-5.06;87.86;99229.87;4512943;79;43383;-85
2021/03/21 03:58:27;;;;;;;32.23;12.07;;;;;;;-5.11;87.83;99218.45;4512132;79;43407;-86
2021/03/21 04:04:59;;;;;;;28.35;10.95;;;;;;;-5.11;86.94;99207.11;4513745;79;43395;-86
2021/03/21 04:11:26;;;;;;;28.12;10.35;;;;;;;-5.12;87.04;99199.74;4525842;78;43414;-87
2021/03/21 04:17:48;;;;;;;25.55;9.55;;;;;;;-5.11;87.91;99184.83;4517199;77;42689;-86
2021/03/21 04:24:08;;;;;;;23.02;9.13;;;;;;;-5.25;87.63;99170.25;4515229;79;44300;-87
2021/03/21 04:30:25;;;;;;;21.62;8.55;;;;;;;-5.23;86.98;99155.23;4516036;79;43927;-86
2021/03/21 04:36:31;;;;;;;22.00;7.78;;;;;;;-5.24;86.33;99155.69;4508042;79;43915;-87
2021/03/21 04:42:52;;;;;;;23.87;7.95;;;;;;;-5.14;84.66;99141.83;4394297;81;43938;-87
2021/03/21 04:48:55;;;;;;;15.38;6.87;;;;;;;-5.12;83.48;99145.98;4382617;81;44035;-87
2021/03/21 04:54:58;;;;;;;16.45;6.92;;;;;;;-5.05;83.64;99140.59;4394941;80;43968;-87
2021/03/21 05:01:08;;;;;;;15.13;5.65;;;;;;;-5.05;82.08;99124.02;4415829;80;43999;-89
2021/03/21 05:07:32;;;;;;;13.30;5.62;;;;;;;-4.86;79.34;99121.98;4381784;81;43563;-86
2021/03/21 05:13:58;;;;;;;13.45;5.25;;;;;;;-4.76;76.92;99118.93;4354354;80;43246;-86
2021/03/21 05:20:18;;;;;;;12.50;4.85;;;;;;;-4.61;74.22;99110.73;4293509;82;28556;-86
2021/03/21 05:27:00;;;;;;;12.00;4.60;;;;;;;-4.45;73.17;99109.39;4329457;82;43245;-87
2021/03/21 05:33:04;;;;;;;12.75;5.08;;;;;;;-4.29;71.46;99101.86;4325561;81;43292;-85
2021/03/21 05:39:18;;;;;;;11.07;4.23;;;;;;;-4.16;71.20;99084.56;4318752;82;28617;-88
2021/03/21 05:45:52;;;;;;;10.18;3.62;;;;;;;-3.98;69.85;99071.59;4328254;82;43206;-87
2021/03/21 05:52:18;;;;;;;8.70;3.37;;;;;;;-3.85;68.73;99065.23;4307406;82;28546;-87
2021/03/21 05:59:00;;;;;;;7.30;3.30;;;;;;;-3.64;67.13;99058.05;4313699;82;42590;-87
2021/03/21 06:12:32;;;;;;;9.33;3.20;;;;;;;-2.94;65.10;99039.03;4563986;76;70100;-87
2021/03/21 06:18:56;;;;;;;5.92;2.60;;;;;;;-2.82;63.96;99035.72;4460756;79;43444;-87
2021/03/21 06:25:33;;;;;;;7.40;2.85;;;;;;;-2.45;63.07;99028.75;4512277;78;42512;-86
2021/03/21 06:32:16;;;;;;;6.60;2.77;;;;;;;-2.07;61.51;99020.78;4503560;78;41822;-86
2021/03/21 06:38:30;;;;;;;6.87;2.40;;;;;;;-1.58;59.34;99003.23;4408360;80;42610;-86
2021/03/21 06:45:02;;;;;;;5.12;2.20;;;;;;;-1.35;57.65;98990.39;4354129;80;43412;-87
2021/03/21 06:51:22;;;;;;;5.67;2.58;;;;;;;-1.24;56.62;98980.05;4274704;82;43407;-85
2021/03/21 06:58:00;;;;;;;5.10;2.55;;;;;;;-0.94;54.98;98962.06;4352988;81;43783;-86
2021/03/21 07:04:44;;;;;;;5.62;2.70;;;;;;;-0.53;54.53;98956.59;4328860;81;43430;-86
2021/03/21 07:11:28;;;;;;;5.70;2.67;;;;;;;-0.21;52.94;98961.61;4284746;82;43415;-87
2021/03/21 07:17:56;;;;;;;;;;;;;;;0.13;52.93;98950.05;4285808;81;28596;-88
2021/03/21 07:24:36;;;;;;;7.40;3.00;;;;;;;0.39;50.31;98947.73;4352539;80;42184;-87
2021/03/21 07:31:05;;;;;;;6.67;3.00;;;;;;;0.64;50.78;98939.75;4349702;80;28554;-85
2021/03/21 07:37:37;;;;;;;8.65;3.27;;;;;;;0.98;50.32;98933.35;4341252;81;42701;-86
2021/03/21 07:44:21;;;;;;;7.67;3.20;;;;;;;1.01;50.06;98930.86;4371324;81;42610;-87
2021/03/21 07:50:35;;;;;;;7.30;3.10;;;;;;;1.14;50.13;98911.78;4317811;81;42188;-88
2021/03/21 07:56:48;;;;;;;7.87;3.00;;;;;;;1.07;49.95;98916.44;4376744;81;42545;-89
2021/03/21 08:02:56;;;;;;;6.90;2.55;;;;;;;0.98;48.49;98905.55;4381264;80;41868;-90
2021/03/21 08:09:22;;;;;;;5.62;2.50;;;;;;;0.95;48.77;98888.70;4312975;81;43391;-87
2021/03/21 08:15:26;;;;;;;;;;;;;;;0.96;47.71;98887.21;4302705;82;28587;-88
2021/03/21 08:21:32;;;;;;;8.20;2.80;;;;;;;0.97;47.94;98880.08;4328981;81;42568;-90
2021/03/21 08:27:34;;;;;;;;;;;;;;;1.14;48.05;98878.17;4330757;81;28584;-89
2021/03/21 08:33:43;;;;;;;6.05;2.70;;;;;;;1.01;48.01;98868.64;4328202;82;43411;-88
2021/03/21 08:39:54;;;;;;;6.10;2.40;;;;;;;1.43;47.80;98856.81;4328793;82;43387;-88
2021/03/21 08:46:17;;;;;;;6.25;2.80;;;;;;;1.73;47.55;98850.30;4324532;82;43395;-86
2021/03/21 08:52:45;;;;;;;6.70;3.00;;;;;;;2.08;46.36;98858.63;4327771;82;41822;-86
2021/03/21 08:59:08;;;;;;;7.87;3.47;;;;;;;2.54;46.76;98846.70;4321025;81;28578;-87
2021/03/21 09:05:14;;;;;;;7.65;3.20;;;;;;;2.98;45.21;98825.92;4330142;82;42535;-95
2021/03/21 09:11:18;;;;;;;;;;;;;;;3.32;45.21;98817.80;4363082;80;28614;-95
2021/03/21 09:17:26;;;;;;;7.40;3.00;;;;;;;3.28;45.58;98828.50;4315348;81;20166;-92
2021/03/21 09:23:43;;;;;;;7.40;2.80;;;;;;;3.30;46.36;98821.64;4343478;80;28582;-90
2021/03/21 09:29:48;;;;;;;6.17;2.58;;;;;;;2.86;46.75;98810.13;4349767;81;28586;-89
2021/03/21 09:36:13;;;;;;;8.70;3.27;;;;;;;3.41;50.44;98808.38;4341767;80;28593;-87
2021/03/21 09:42:15;;;;;;;5.30;2.50;;;;;;;3.30;46.25;98809.69;4344224;80;28544;-89
2021/03/21 09:48:41;;;;;;;7.58;3.20;;;;;;;3.51;45.58;98812.86;4345865;81;28590;-83
2021/03/21 09:54:55;;;;;;;8.75;3.77;;;;;;;3.03;46.93;98796.15;4371798;80;28583;-86
2021/03/21 10:01:24;;;;;;;7.33;3.20;;;;;;;3.47;47.95;98792.48;4363217;80;28571;-79
2021/03/21 10:07:48;;;;;;;7.22;3.77;;;;;;;3.22;48.98;98780.09;4331292;80;28570;-80
2021/03/21 10:13:51;;;;;;;6.50;3.10;;;;;;;3.53;49.13;98788.73;4348685;80;28562;-90
2021/03/21 10:19:56;;;;;;;9.10;4.05;;;;;;;3.80;49.39;98777.83;4337716;81;28632;-85
2021/03/21 10:26:06;;;;;;;8.08;3.85;;;;;;;3.88;49.55;98772.34;4345345;81;28568;-85
2021/03/21 10:32:31;;;;;;;8.30;4.30;;;;;;;3.95;51.21;98768.91;4343313;80;28580;-87
2021/03/21 10:38:47;;;;;;;10.90;4.10;;;;;;;3.94;52.48;98759.29;4352862;80;28612;-90
2021/03/21 10:44:52;;;;;;;;;;;;;;;3.62;56.73;98766.31;4358874;81;28583;-78
2021/03/21 10:51:06;;;;;;;8.03;3.70;;;;;;;3.24;60.58;98762.11;4346668;81;20163;-86
2021/03/21 10:57:37;;;;;;;10.38;4.22;;;;;;;2.83;65.04;98755.59;4365623;80;28583;-85
2021/03/21 11:03:39;;;;;;;8.68;4.85;;;;;;;3.03;68.80;98750.47;4371742;80;28590;-88
2021/03/21 11:16:23;;;;;;;12.73;5.30;;;;;;;2.82;84.59;98735.84;4469564;79;85244;-89
2021/03/21 11:22:37;;;;;;;10.35;5.22;;;;;;;2.86;86.72;98748.56;4410804;80;28544;-88
2021/03/21 11:28:43;;;;;;;10.30;4.97;;;;;;;2.98;86.38;98719.69;4420626;80;28556;-86
2021/03/21 11:35:02;;;;;;;9.18;4.65;;;;;;;3.25;80.62;98727.08;4402462;80;28631;-84
2021/03/21 11:41:30;;;;;;;13.45;6.45;;;;;;;3.03;87.19;98734.53;4379222;80;28547;-86
2021/03/21 11:47:33;;;;;;;13.25;6.33;;;;;;;2.84;100.00;98724.53;4410033;80;28600;-86
2021/03/21 11:53:39;;;;;;;12.45;5.80;;;;;;;2.63;100.00;98724.81;4406865;80;28571;-83
2021/03/21 11:59:55;;;;;;;14.33;6.80;;;;;;;2.60;100.00;98711.44;4403549;80;28553;-87
2021/03/21 12:06:06;;;;;;;12.28;6.45;;;;;;;2.90;100.00;98696.70;4392682;79;28548;-85
2021/03/21 12:12:37;;;;;;;12.88;6.50;;;;;;;2.88;100.00;98692.10;4428107;80;28604;-88
2021/03/21 12:18:39;;;;;;;14.43;7.12;;;;;;;2.95;100.00;98679.41;4404754;80;29185;-86
2021/03/21 12:24:47;;;;;;;13.22;7.22;;;;;;;3.03;100.00;98679.28;4433707;80;28547;-86
2021/03/21 12:30:53;;;;;;;14.98;7.40;;;;;;;3.00;100.00;98671.17;4403719;80;28940;-89
2021/03/21 12:37:13;;;;;;;15.55;7.37;;;;;;;2.84;100.00;98669.61;4428506;80;28952;-89
2021/03/21 12:43:28;;;;;;;13.38;7.37;;;;;;;3.05;100.00;98656.00;4406035;80;28601;-92
2021/03/21 12:49:53;;;;;;;15.50;7.70;;;;;;;3.30;100.00;98633.81;4413234;80;28547;-89
2021/03/21 12:55:59;;;;;;;14.75;7.72;;;;;;;3.51;100.00;98618.81;4420185;80;28597;-92
2021/03/21 13:02:03;;;;;;;14.98;7.22;;;;;;;3.52;100.00;98610.32;4387765;80;28550;-88
2021/03/21 13:08:08;;;;;;;13.58;6.67;;;;;;;3.45;100.00;98627.56;4392894;80;28665;-88
2021/03/21 13:14:13;;;;;;;13.28;6.50;;;;;;;3.42;100.00;98612.81;4392390;80;28640;-88
2021/03/21 13:20:18;;;;;;;14.15;7.05;;;;;;;3.71;100.00;98605.63;4366042;80;28607;-88
2021/03/21 13:26:21;;;;;;;12.70;6.90;;;;;;;3.84;100.00;98585.42;4433728;80;28913;-90
2021/03/21 13:32:24;;;;;;;12.25;6.22;;;;;;;4.01;96.18;98571.26;4433397;80;29215;-89
2021/03/21 13:38:29;;;;;;;12.53;6.60;;;;;;;4.03;92.91;98569.24;4410138;80;28596;-84
2021/03/21 13:44:32;;;;;;;14.18;6.28;;;;;;;4.02;91.30;98560.43;4420582;80;28544;-83
2021/03/21 13:50:37;;;;;;;13.18;6.03;;;;;;;3.51;93.03;98560.84;4427900;80;28591;-81
2021/03/21 13:56:39;;;;;;;12.95;5.33;;;;;;;3.36;92.26;98544.52;4403946;80;28962;-85
2021/03/21 14:02:41;;;;;;;10.15;5.65;;;;;;;3.18;100.00;98531.23;4422848;80;28559;-85
2021/03/21 14:08:45;;;;;;;12.13;5.90;;;;;;;3.23;100.00;98530.65;4420184;80;28659;-87
2021/03/21 14:14:47;;;;;;;11.15;6.58;;;;;;;3.45;100.00;98525.23;4401633;80;28572;-83
2021/03/21 14:20:53;;;;;;;15.80;7.28;;;;;;;3.71;100.00;98515.75;4412756;80;28581;-86
2021/03/21 14:26:57;;;;;;;10.48;6.35;;;;;;;4.24;95.79;98500.92;4418047;79;28635;-86
2021/03/21 14:33:04;;;;;;;14.60;7.60;;;;;;;3.92;100.00;98498.01;4414628;80;28549;-86
2021/03/21 14:39:23;;;;;;;12.60;7.35;;;;;;;3.90;100.00;98489.72;4594684;76;76396;-90
2021/03/21 14:45:25;;;;;;;11.68;6.30;;;;;;;3.82;100.00;98489.07;4494869;78;28573;-84
2021/03/21 14:51:30;;;;;;;12.45;5.90;;;;;;;3.74;100.00;98491.41;4510037;78;28553;-84
2021/03/21 14:57:32;;;;;;;10.55;6.03;;;;;;;3.53;100.00;98485.20;4499946;78;28581;-88
2021/03/21 15:03:34;;;;;;;13.10;6.55;;;;;;;3.32;100.00;98467.03;4505445;78;28540;-88
2021/03/21 15:09:37;;;;;;;12.93;6.53;;;;;;;3.09;100.00;98470.50;4500582;78;28617;-89
2021/03/21 15:15:43;;;;;;;13.95;6.35;;;;;;;2.92;100.00;98465.00;4496580;78;28595;-87
2021/03/21 15:21:45;;;;;;;12.95;6.50;;;;;;;2.84;100.00;98457.19;4509447;78;28599;-87
2021/03/21 15:27:50;;;;;;;10.60;5.83;;;;;;;2.90;100.00;98455.58;4503941;78;28597;-89
2021/03/21 15:33:54;;;;;;;11.03;5.83;;;;;;;2.75;100.00;98446.41;4506943;77;28563;-89
2021/03/21 15:39:59;;;;;;;12.37;6.12;;;;;;;2.86;100.00;98447.67;4455303;78;28573;-89
2021/03/21 15:46:01;;;;;;;13.10;6.92;;;;;;;2.73;100.00;98438.63;4481484;78;28571;-87
2021/03/21 15:52:06;;;;;;;10.78;5.60;;;;;;;2.53;100.00;98441.16;4506706;78;28586;-89
2021/03/21 15:58:09;;;;;;;14.13;6.12;;;;;;;2.46;100.00;98441.61;4474757;78;28541;-85
2021/03/21 16:04:14;;;;;;;10.35;5.60;;;;;;;2.50;99.15;98445.02;4501532;78;28589;-84
2021/03/21 16:10:21;;;;;;;10.45;5.00;;;;;;;2.42;98.98;98430.56;4484077;78;28620;-85
2021/03/21 16:16:25;;;;;;;13.00;5.85;;;;;;;2.29;100.00;98427.33;4505425;78;28609;-88
2021/03/21 16:22:27;;;;;;;11.70;5.53;;;;;;;2.31;100.00;98433.25;4508761;78;28606;-87
2021/03/21 16:28:30;;;;;;;15.28;6.62;;;;;;;2.17;100.00;98427.51;4504524;78;28570;-81
2021/03/21 16:34:33;;;;;;;12.13;6.62;;;;;;;2.17;100.00;98420.88;4492089;78;28613;-82
2021/03/21 16:40:40;;;;;;;14.60;6.55;;;;;;;2.09;100.00;98409.42;4491105;78;28606;-81
2021/03/21 16:46:43;;;;;;;15.03;6.40;;;;;;;2.00;100.00;98418.52;4502641;78;28671;-82
2021/03/21 16:52:45;;;;;;;15.20;7.87;;;;;;;1.93;100.00;98413.65;4497716;78;28550;-87
2021/03/21 16:58:47;;;;;;;12.70;7.17;;;;;;;1.83;100.00;98416.63;4389990;80;28565;-89
2021/03/21 17:04:50;;;;;;;15.78;7.20;;;;;;;1.70;100.00;98409.37;4378045;80;28561;-85
2021/03/21 17:10:53;;;;;;;14.05;7.10;;;;;;;1.53;100.00;98401.65;4346260;80;43975;-84
2021/03/21 17:16:55;;;;;;;11.73;5.75;;;;;;;1.51;100.00;98402.84;4282776;81;43242;-86
2021/03/21 17:22:59;;;;;;;14.78;8.03;;;;;;;1.33;100.00;98396.16;4298898;81;28576;-84
2021/03/21 17:29:04;;;;;;;15.38;7.78;;;;;;;1.27;100.00;98393.44;4384723;80;43992;-86
2021/03/21 17:35:08;;;;;;;16.70;7.67;;;;;;;1.10;100.00;98396.28;4365658;80;28558;-87
2021/03/21 17:41:10;;;;;;;17.73;7.72;;;;;;;1.14;100.00;98394.90;4316738;80;28618;-85
2021/03/21 17:47:15;;;;;;;15.48;7.97;;;;;;;1.14;100.00;98396.22;4316376;81;43931;-86
2021/03/21 17:53:31;;;;;;;14.20;7.93;;;;;;;1.25;100.00;98386.98;4325709;81;28576;-85
2021/03/21 17:59:34;;;;;;;17.50;9.03;;;;;;;1.27;100.00;98399.53;4307380;81;28630;-87
2021/03/21 18:05:35;;;;;;;16.60;8.53;;;;;;;1.28;100.00;98404.34;4341050;80;44006;-84
2021/03/21 18:11:39;;;;;;;16.70;8.93;;;;;;;1.19;100.00;98406.26;4353499;81;43934;-88
2021/03/21 18:17:43;;;;;;;17.07;8.50;;;;;;;1.17;100.00;98396.36;4342738;81;28568;-90
2021/03/21 18:23:46;;;;;;;19.30;10.20;;;;;;;1.07;100.00;98404.61;4345686;80;44431;-91
2021/03/21 18:29:48;;;;;;;19.45;9.78;;;;;;;0.98;100.00;98397.25;4352233;80;44476;-87
2021/03/21 18:35:52;;;;;;;20.60;10.60;;;;;;;0.99;100.00;98402.06;4357377;80;44502;-86
2021/03/21 18:41:55;;;;;;;23.75;12.20;;;;;;;1.12;100.00;98411.48;4380859;80;43705;-88
2021/03/21 18:47:57;;;;;;;22.58;11.78;;;;;;;1.01;100.00;98407.49;4390219;80;28615;-85
2021/03/21 18:54:00;;;;;;;21.95;10.68;;;;;;;1.11;100.00;98412.48;4386434;80;44492;-89
2021/03/21 19:00:10;;;;;;;16.07;9.75;;;;;;;1.11;100.00;98404.05;4321764;81;44448;-86
2021/03/21 19:06:13;;;;;;;22.35;10.35;;;;;;;1.10;100.00;98396.28;4302518;81;44457;-87
2021/03/21 19:12:15;;;;;;;22.07;10.90;;;;;;;1.14;100.00;98406.01;4297052;81;44444;-86
2021/03/21 19:18:18;;;;;;;19.65;9.65;;;;;;;1.20;100.00;98399.98;4368151;80;28587;-87
2021/03/21 19:24:23;;;;;;;19.05;9.90;;;;;;;1.20;100.00;98400.78;4376276;81;28555;-87
2021/03/21 19:30:32;;;;;;;17.45;9.38;;;;;;;1.16;100.00;98396.88;4377998;81;28591;-85
2021/03/21 19:36:34;;;;;;;18.45;10.35;;;;;;;1.18;100.00;98396.19;4375720;80;44446;-83
2021/03/21 19:42:36;;;;;;;23.05;11.45;;;;;;;1.20;100.00;98396.02;4369344;80;42895;-85
2021/03/21 19:48:39;;;;;;;23.30;11.08;;;;;;;1.24;100.00;98394.09;4367479;80;43646;-82
2021/03/21 19:54:41;;;;;;;21.23;11.08;;;;;;;1.19;100.00;98390.37;4357763;81;44429;-84
2021/03/21 20:00:44;;;;;;;21.25;11.35;;;;;;;1.17;100.00;98391.06;4360231;80;44428;-82
2021/03/21 20:06:47;;;;;;;23.62;11.57;;;;;;;1.13;100.00;98393.26;4343385;80;42923;-82
2021/03/21 20:12:51;;;;;;;22.60;11.18;;;;;;;1.21;100.00;98389.19;4356745;81;44433;-87
2021/03/21 20:18:53;;;;;;;21.90;11.10;;;;;;;1.29;100.00;98394.06;4355502;81;28640;-84
2021/03/21 20:24:56;;;;;;;20.70;11.88;;;;;;;1.19;100.00;98395.66;4324189;81;44536;-81
2021/03/21 20:31:02;;;;;;;23.57;11.15;;;;;;;1.19;100.00;98396.98;4334657;81;43670;-82
2021/03/21 20:37:04;;;;;;;23.80;12.18;;;;;;;1.06;100.00;98391.05;4365627;81;43560;-85
2021/03/21 20:43:12;;;;;;;23.20;12.00;;;;;;;1.17;100.00;98388.41;4359210;81;28650;-85
2021/03/21 20:49:18;;;;;;;25.72;12.60;;;;;;;1.24;100.00;98390.13;4376010;80;42949;-78
2021/03/21 20:55:33;;;;;;;;;;;;;;;1.22;100.00;98385.52;4365974;80;28559;-84
2021/03/21 21:01:35;;;;;;;24.10;12.37;;;;;;;1.32;100.00;98385.73;4354774;80;20234;-86
2021/03/21 21:07:39;;;;;;;22.65;11.70;;;;;;;1.37;100.00;98387.33;4341289;81;43661;-83
2021/03/21 21:13:42;;;;;;;25.25;13.95;;;;;;;1.34;100.00;98393.81;4335572;80;42863;-88
2021/03/21 21:19:44;;;;;;;26.10;14.13;;;;;;;1.39;100.00;98396.70;4350384;81;42897;-87
2021/03/21 21:25:46;;;;;;;26.85;14.35;;;;;;;1.41;100.00;98401.00;4325054;81;43383;-86
2021/03/21 21:31:48;;;;;;;28.38;15.18;;;;;;;1.40;100.00;98400.19;4357675;80;43386;-92
2021/03/21 21:37:52;;;;;;;26.80;14.80;;;;;;;1.30;100.00;98399.19;4330229;81;43323;-89
2021/03/21 21:43:54;;;;;;;30.95;16.12;;;;;;;1.70;100.00;98400.09;4309520;81;28634;-85
2021/03/21 21:49:56;;;;;;;33.53;16.90;;;;;;;1.81;100.00;98396.93;4323399;80;44080;-85
2021/03/21 21:55:59;;;;;;;30.40;16.32;;;;;;;1.70;100.00;98406.72;4299300;81;44126;-85
2021/03/21 22:02:01;;;;;;;31.68;17.67;;;;;;;1.70;100.00;98404.06;4235918;83;44088;-84
2021/03/21 22:08:04;;;;;;;31.12;16.42;;;;;;;1.37;100.00;98408.52;4216912;84;44452;-84
2021/03/21 22:14:06;;;;;;;29.27;14.90;;;;;;;1.33;100.00;98411.20;4300148;81;43765;-85
2021/03/21 22:20:10;;;;;;;31.25;15.50;;;;;;;1.27;100.00;98419.40;4311892;83;44132;-85
2021/03/21 22:26:13;;;;;;;33.08;16.65;;;;;;;1.27;100.00;98421.24;4312084;83;44085;-85
2021/03/21 22:32:15;;;;;;;37.67;19.12;;;;;;;1.33;100.00;98432.40;4323989;82;44428;-82
2021/03/21 22:38:19;;;;;;;30.95;16.30;;;;;;;1.23;100.00;98435.35;4322236;81;44122;-83
2021/03/21 22:44:22;;;;;;;32.70;17.50;;;;;;;1.31;100.00;98437.06;4297870;81;28641;-82
2021/03/21 22:50:28;;;;;;;33.50;17.35;;;;;;;1.13;100.00;98434.82;4247460;81;44094;-80
2021/03/21 22:56:33;;;;;;;30.88;16.27;;;;;;;1.28;100.00;98436.13;4327885;82;44116;-82
2021/03/21 23:02:35;;;;;;;36.73;18.57;;;;;;;1.20;100.00;98444.48;4328370;82;44484;-84
2021/03/21 23:08:38;;;;;;;39.05;19.65;;;;;;;1.16;100.00;98443.22;4324329;82;28575;-82
2021/03/21 23:14:41;;;;;;;33.55;18.12;;;;;;;1.09;100.00;98439.17;4294152;83;44476;-81
2021/03/21 23:20:47;;;;;;;39.38;19.85;;;;;;;1.10;100.00;98436.84;4302531;82;44451;-82
2021/03/21 23:26:49;;;;;;;37.88;18.17;;;;;;;1.09;100.00;98445.79;4361111;81;44428;-82
2021/03/21 23:32:51;;;;;;;36.38;18.75;;;;;;;1.08;100.00;98458.69;4304343;82;28571;-84
2021/03/21 23:38:54;;;;;;;35.75;18.12;;;;;;;1.19;100.00;98455.25;4345824;81;28622;-83
2021/03/21 23:44:57;;;;;;;31.55;15.55;;;;;;;1.02;100.00;98458.11;4376174;81;44121;-81
2021/03/21 23:51:03;;;;;;;25.27;13.30;;;;;;;1.09;100.00;98466.97;4376763;81;43331;-82
2021/03/21 23:57:06;;;;;;;24.52;12.43;;;;;;;1.15;100.00;98469.87;4377755;81;43745;-83
